createdAt,value
2019-01-25T00:03:10.224Z,101068.28
2019-01-25T00:07:14.668Z,101061.54
2019-01-25T00:11:19.537Z,101061.22
2019-01-25T00:15:24.460Z,101050.66
2019-01-25T00:19:29.656Z,101050.55
2019-01-25T00:23:34.676Z,101056.67
2019-01-25T00:27:39.946Z,101062.25
2019-01-25T00:31:44.878Z,101059.87
2019-01-25T00:35:49.805Z,101058.84
2019-01-25T00:39:54.814Z,101062.15
2019-01-25T00:43:59.759Z,101075.97
2019-01-25T00:48:05.001Z,101070.88
2019-01-25T00:52:09.930Z,101073.14
2019-01-25T00:56:14.855Z,101059.11
2019-01-25T01:00:23.234Z,101060.08
2019-01-25T01:04:28.263Z,101055.75
2019-01-25T01:08:33.578Z,101050.73
2019-01-25T01:12:38.548Z,101058.52
2019-01-25T01:16:43.514Z,101054.83
2019-01-25T01:20:48.426Z,101073.69
2019-01-25T01:24:53.399Z,101075.37
2019-01-25T01:28:58.323Z,101068.28
2019-01-25T01:33:03.279Z,101068.51
2019-01-25T01:37:08.282Z,101075.29
2019-01-25T01:41:13.215Z,101069.36
2019-01-25T01:45:18.184Z,101064.48
2019-01-25T01:49:26.950Z,101072.98
2019-01-25T01:53:31.882Z,101071.13
2019-01-25T01:57:36.823Z,101076.66
2019-01-25T02:01:42.046Z,101076.61
2019-01-25T02:05:46.955Z,101084.61
2019-01-25T02:09:52.002Z,101083.30
2019-01-25T02:13:57.006Z,101080.16
2019-01-25T02:18:01.944Z,101083.86
2019-01-25T02:22:06.995Z,101082.94
2019-01-25T02:26:11.901Z,101090.75
2019-01-25T02:30:20.025Z,101082.76
2019-01-25T02:34:25.263Z,101085.33
2019-01-25T02:38:30.261Z,101090.26
2019-01-25T02:42:35.188Z,101083.58
2019-01-25T02:46:40.122Z,101085.14
2019-01-25T02:50:45.055Z,101083.25
2019-01-25T02:54:50.348Z,101074.30
2019-01-25T02:58:55.277Z,101076.08
2019-01-25T03:03:00.221Z,101078.00
2019-01-25T03:07:05.146Z,101083.84
2019-01-25T03:11:10.213Z,101087.57
2019-01-25T03:15:18.249Z,101090.83
2019-01-25T03:19:23.209Z,101088.48
2019-01-25T03:23:28.428Z,101089.30
2019-01-25T03:27:33.369Z,101089.84
2019-01-25T03:31:38.320Z,101088.59
2019-01-25T03:35:43.249Z,101078.57
2019-01-25T03:39:48.260Z,101075.88
2019-01-25T03:43:53.177Z,101077.55
2019-01-25T03:47:58.200Z,101068.98
2019-01-25T03:52:03.123Z,101073.95
2019-01-25T03:56:08.067Z,101075.09
2019-01-25T04:00:16.601Z,101085.08
2019-01-25T04:04:21.545Z,101084.72
2019-01-25T04:08:26.478Z,101087.46
2019-01-25T04:12:31.429Z,101087.53
2019-01-25T04:16:36.346Z,101092.16
2019-01-25T04:20:41.386Z,101096.17
2019-01-25T04:24:46.297Z,101089.80
2019-01-25T04:28:51.612Z,101081.53
2019-01-25T04:32:56.525Z,101068.45
2019-01-25T04:37:01.467Z,101068.66
2019-01-25T04:41:11.490Z,101065.70
2019-01-25T04:45:15.726Z,101065.03
2019-01-25T04:49:20.754Z,101060.41
2019-01-25T04:53:25.676Z,101052.45
2019-01-25T04:57:30.661Z,101055.86
2019-01-25T05:01:35.575Z,101058.48
2019-01-25T05:05:40.564Z,101064.61
2019-01-25T05:09:45.814Z,101070.89
2019-01-25T05:13:50.710Z,101070.29
2019-01-25T05:17:55.984Z,101073.74
2019-01-25T05:22:00.911Z,101091.09
2019-01-25T05:26:05.808Z,101097.23
2019-01-25T05:30:12.160Z,101097.63
2019-01-25T05:34:17.045Z,101096.20
2019-01-25T05:38:22.011Z,101104.70
2019-01-25T05:42:26.934Z,101108.97
2019-01-25T05:46:31.863Z,101118.14
2019-01-25T05:50:36.787Z,101121.63
2019-01-25T05:54:44.143Z,101123.51
2019-01-25T05:58:49.241Z,101134.53
2019-01-25T06:02:54.207Z,101128.52
2019-01-25T06:06:59.169Z,101130.09
2019-01-25T06:11:14.635Z,101130.69
2019-01-25T06:15:19.654Z,101134.00
2019-01-25T06:19:24.557Z,101125.14
2019-01-25T06:23:29.585Z,101125.78
2019-01-25T06:27:38.225Z,101125.78
2019-01-25T06:31:43.322Z,101125.50
2019-01-25T06:35:48.227Z,101128.16
2019-01-25T06:39:53.237Z,101119.73
2019-01-25T06:43:58.411Z,101117.89
2019-01-25T06:48:03.430Z,101122.05
2019-01-25T06:52:08.358Z,101119.78
2019-01-25T06:56:13.508Z,101127.14
2019-01-25T07:00:20.710Z,101119.45
2019-01-25T07:04:25.664Z,101120.20
2019-01-25T07:08:30.573Z,101115.69
2019-01-25T07:12:35.459Z,101123.69
2019-01-25T07:16:40.832Z,101129.23
2019-01-25T07:20:46.067Z,101129.30
2019-01-25T07:24:57.195Z,101133.17
2019-01-25T07:28:57.590Z,101134.56
2019-01-25T07:33:03.027Z,101133.50
2019-01-25T07:37:07.963Z,101130.52
2019-01-25T07:41:12.875Z,101134.03
2019-01-25T07:45:17.842Z,101138.69
2019-01-25T07:49:23.043Z,101139.08
2019-01-25T07:53:27.979Z,101145.48
2019-01-25T07:57:32.992Z,101144.70
2019-01-25T08:01:38.257Z,101133.63
2019-01-25T08:05:43.201Z,101150.13
2019-01-25T08:09:48.083Z,101149.92
2019-01-25T08:13:53.004Z,101137.84
2019-01-25T08:17:57.926Z,101143.27
2019-01-25T08:22:02.812Z,101147.11
2019-01-25T08:26:07.799Z,101160.48
2019-01-25T08:30:14.395Z,101158.13
2019-01-25T08:34:19.404Z,101161.44
2019-01-25T08:38:24.334Z,101161.74
2019-01-25T08:42:29.289Z,101157.77
2019-01-25T08:46:35.096Z,101160.56
2019-01-25T08:50:40.097Z,101155.67
2019-01-25T08:54:44.999Z,101159.35
2019-01-25T08:58:49.915Z,101156.30
2019-01-25T09:02:54.818Z,101153.22
2019-01-25T09:06:59.723Z,101153.63
2019-01-25T09:11:04.634Z,101157.58
2019-01-25T09:15:13.409Z,101155.70
2019-01-25T09:19:18.324Z,101173.66
2019-01-25T09:23:23.219Z,101169.41
2019-01-25T09:27:28.117Z,101172.23
2019-01-25T09:31:33.025Z,101172.58
2019-01-25T09:35:37.949Z,101165.92
2019-01-25T09:39:42.841Z,101171.91
2019-01-25T09:43:47.844Z,101186.92
2019-01-25T09:47:52.760Z,101184.09
2019-01-25T09:51:57.683Z,101165.67
2019-01-25T09:56:02.595Z,101162.62
2019-01-25T10:00:19.794Z,101172.91
2019-01-25T10:04:24.677Z,101173.95
2019-01-25T10:08:29.602Z,101163.53
2019-01-25T10:12:38.837Z,101166.13
2019-01-25T10:16:41.136Z,101180.53
2019-01-25T10:20:46.030Z,101173.21
2019-01-25T10:24:50.938Z,101155.45
2019-01-25T10:28:55.869Z,101152.87
2019-01-25T10:33:00.780Z,101154.95
2019-01-25T10:37:05.843Z,101149.67
2019-01-25T10:41:10.739Z,101141.41
2019-01-25T10:45:25.344Z,101129.31
2019-01-25T10:49:30.264Z,101121.42
2019-01-25T10:53:35.144Z,101117.22
2019-01-25T10:57:40.103Z,101114.75
2019-01-25T11:01:44.995Z,101115.75
2019-01-25T11:05:50.081Z,101103.28
2019-01-25T11:09:54.981Z,101111.30
2019-01-25T11:13:59.907Z,101103.98
2019-01-25T11:18:05.297Z,101100.58
2019-01-25T11:22:10.198Z,101091.55
2019-01-25T11:26:15.095Z,101081.92
2019-01-25T11:30:20.108Z,101094.89
2019-01-25T11:34:25.037Z,101078.20
2019-01-25T11:38:29.938Z,101070.79
2019-01-25T11:42:34.855Z,101068.52
2019-01-25T11:46:40.045Z,101059.98
2019-01-25T11:50:44.986Z,101047.76
2019-01-25T11:54:50.490Z,101039.43
2019-01-25T11:58:55.470Z,101037.37
2019-01-25T12:03:00.442Z,101036.97
2019-01-25T12:07:05.345Z,101052.73
2019-01-25T12:11:10.279Z,101059.18
2019-01-25T12:15:16.915Z,101065.28
2019-01-25T12:19:21.785Z,101072.72
2019-01-25T12:23:26.716Z,101073.34
2019-01-25T12:27:31.651Z,101070.25
2019-01-25T12:31:37.274Z,101069.93
2019-01-25T12:35:44.450Z,101058.98
2019-01-25T12:39:49.467Z,101059.97
2019-01-25T12:43:54.460Z,101048.50
2019-01-25T12:47:59.819Z,101025.04
2019-01-25T12:52:09.899Z,101027.67
2019-01-25T12:56:14.786Z,101025.16
2019-01-25T13:00:23.700Z,101017.17
2019-01-25T13:04:28.671Z,101030.53
2019-01-25T13:08:33.669Z,101033.45
2019-01-25T13:12:38.563Z,101021.66
2019-01-25T13:16:43.698Z,101019.70
2019-01-25T13:20:48.960Z,101016.52
2019-01-25T13:24:53.900Z,101021.61
2019-01-25T13:28:58.775Z,101004.56
2019-01-25T13:33:03.757Z,101017.95
2019-01-25T13:37:08.993Z,101013.90
2019-01-25T13:41:13.903Z,101002.41
2019-01-25T13:45:19.587Z,101005.36
2019-01-25T13:49:24.495Z,100997.81
2019-01-25T13:53:29.433Z,100997.91
2019-01-25T13:57:34.308Z,100994.85
2019-01-25T14:01:39.236Z,100983.87
2019-01-25T14:05:44.371Z,100972.34
2019-01-25T14:09:49.716Z,100970.91
2019-01-25T14:13:54.685Z,100953.16
2019-01-25T14:17:59.659Z,100945.66
2019-01-25T14:22:04.596Z,100932.61
2019-01-25T14:26:09.523Z,100921.54
2019-01-25T14:30:50.517Z,100908.55
2019-01-25T14:34:55.824Z,100910.18
2019-01-25T14:39:00.808Z,100907.55
2019-01-25T14:43:05.801Z,100905.19
2019-01-25T14:47:10.730Z,100898.25
2019-01-25T14:51:15.788Z,100898.30
2019-01-25T14:55:20.788Z,100899.73
2019-01-25T14:59:25.978Z,100898.57
2019-01-25T15:03:30.996Z,100907.02
2019-01-25T15:07:35.913Z,100912.96
2019-01-25T15:11:40.821Z,100924.92
2019-01-25T15:15:45.950Z,100918.47
2019-01-25T15:19:51.199Z,100929.14
2019-01-25T15:23:56.075Z,100928.27
2019-01-25T15:28:00.976Z,100926.91
2019-01-25T15:32:06.095Z,100920.59
2019-01-25T15:36:11.684Z,100904.76
2019-01-25T15:40:17.340Z,100898.11
2019-01-25T15:44:22.325Z,100900.78
2019-01-25T15:48:28.919Z,100899.62
2019-01-25T15:52:33.859Z,100889.09
2019-01-25T15:56:38.817Z,100875.98
2019-01-25T16:00:44.102Z,100884.54
2019-01-25T16:04:49.103Z,100888.17
2019-01-25T16:08:54.283Z,100875.88
2019-01-25T16:12:59.324Z,100871.93
2019-01-25T16:17:04.342Z,100884.29
2019-01-25T16:21:09.289Z,100868.97
2019-01-25T16:25:27.118Z,100863.14
2019-01-25T16:29:32.077Z,100857.39
2019-01-25T16:33:37.347Z,100854.91
2019-01-25T16:37:42.390Z,100847.17
2019-01-25T16:41:47.452Z,100843.44
2019-01-25T16:45:52.493Z,100825.44
2019-01-25T16:49:57.541Z,100811.11
2019-01-25T16:54:02.582Z,100814.84
2019-01-25T16:58:08.113Z,100807.55
2019-01-25T17:02:13.094Z,100804.56
2019-01-25T17:06:18.019Z,100811.86
2019-01-25T17:10:23.032Z,100809.48
2019-01-25T17:14:33.350Z,100808.23
2019-01-25T17:18:35.139Z,100800.48
2019-01-25T17:22:40.096Z,100791.42
2019-01-25T17:26:44.997Z,100791.80
2019-01-25T17:30:50.334Z,100786.36
2019-01-25T17:34:55.513Z,100783.64
2019-01-25T17:39:00.470Z,100775.22
2019-01-25T17:43:05.542Z,100778.72
2019-01-25T17:47:10.494Z,100769.80
2019-01-25T17:51:15.489Z,100777.20
2019-01-25T17:55:20.384Z,100778.14
2019-01-25T17:59:26.263Z,100765.72
2019-01-25T18:03:31.274Z,100764.66
2019-01-25T18:07:36.201Z,100754.12
2019-01-25T18:11:41.703Z,100750.52
2019-01-25T18:15:46.713Z,100747.30
2019-01-25T18:19:52.543Z,100748.89
2019-01-25T18:23:59.449Z,100742.37
2019-01-25T18:28:05.502Z,100743.14
2019-01-25T18:32:10.614Z,100730.72
2019-01-25T18:36:15.627Z,100736.72
2019-01-25T18:40:21.076Z,100745.58
2019-01-25T18:44:25.965Z,100740.94
2019-01-25T18:48:30.891Z,100720.14
2019-01-25T18:52:36.231Z,100715.98
2019-01-25T18:56:42.202Z,100716.15
2019-01-25T19:00:47.117Z,100710.55
2019-01-25T19:04:52.027Z,100713.06
2019-01-25T19:08:56.975Z,100712.22
2019-01-25T19:13:01.901Z,100713.26
2019-01-25T19:17:06.801Z,100709.36
2019-01-25T19:21:11.749Z,100702.70
2019-01-25T19:25:16.752Z,100714.15
2019-01-25T19:29:21.673Z,100704.27
2019-01-25T19:33:26.663Z,100701.91
2019-01-25T19:37:31.654Z,100707.49
2019-01-25T19:41:36.565Z,100698.55
2019-01-25T19:45:41.631Z,100691.18
2019-01-25T19:49:46.553Z,100692.69
2019-01-25T19:53:51.618Z,100686.08
2019-01-25T19:57:56.978Z,100687.61
2019-01-25T20:02:02.197Z,100685.52
2019-01-25T20:06:07.098Z,100689.54
2019-01-25T20:10:12.286Z,100679.14
2019-01-25T20:14:17.368Z,100674.30
2019-01-25T20:18:22.661Z,100671.78
2019-01-25T20:22:27.822Z,100669.19
2019-01-25T20:26:32.901Z,100665.98
2019-01-25T20:30:37.985Z,100659.46
2019-01-25T20:34:42.954Z,100660.02
2019-01-25T20:38:47.935Z,100660.31
2019-01-25T20:42:52.881Z,100665.51
2019-01-25T20:46:57.774Z,100657.98
2019-01-25T20:51:03.098Z,100654.13
2019-01-25T20:55:09.907Z,100644.79
2019-01-25T20:59:14.807Z,100653.73
2019-01-25T21:03:19.821Z,100634.46
2019-01-25T21:07:27.840Z,100645.05
2019-01-25T21:11:32.811Z,100641.89
2019-01-25T21:15:37.868Z,100651.75
2019-01-25T21:19:42.801Z,100649.88
2019-01-25T21:23:47.803Z,100644.61
2019-01-25T21:27:52.712Z,100629.49
2019-01-25T21:31:57.634Z,100631.84
2019-01-25T21:36:02.594Z,100634.13
2019-01-25T21:40:10.827Z,100633.71
2019-01-25T21:44:15.824Z,100618.14
2019-01-25T21:48:20.755Z,100631.81
2019-01-25T21:52:25.795Z,100621.01
2019-01-25T21:56:30.825Z,100606.49
2019-01-25T22:00:35.945Z,100606.49
2019-01-25T22:04:41.188Z,100606.80
2019-01-25T22:08:46.181Z,100596.23
2019-01-25T22:12:51.211Z,100605.59
2019-01-25T22:16:56.490Z,100603.65
2019-01-25T22:21:01.379Z,100599.08
2019-01-25T22:25:07.268Z,100603.71
2019-01-25T22:29:12.184Z,100601.73
2019-01-25T22:33:17.191Z,100594.05
2019-01-25T22:37:23.900Z,100585.12
2019-01-25T22:41:28.691Z,100583.20
2019-01-25T22:45:33.627Z,100590.16
2019-01-25T22:49:38.559Z,100585.42
2019-01-25T22:53:43.805Z,100599.94
2019-01-25T22:57:48.690Z,100598.64
2019-01-25T23:01:53.611Z,100596.51
2019-01-25T23:06:33.948Z,100600.83
2019-01-25T23:10:39.192Z,100587.36
2019-01-25T23:14:44.091Z,100588.58
2019-01-25T23:18:49.009Z,100590.30
2019-01-25T23:22:53.927Z,100584.17
2019-01-25T23:26:58.887Z,100589.31
2019-01-25T23:31:03.817Z,100584.70
2019-01-25T23:35:08.693Z,100592.05
2019-01-25T23:39:13.675Z,100595.35
2019-01-25T23:43:18.560Z,100601.29
2019-01-25T23:47:25.182Z,100598.23
2019-01-25T23:51:30.153Z,100592.16
2019-01-25T23:55:35.231Z,100588.06
2019-01-25T23:59:40.135Z,100583.22
